Detalii statie Lilieci, IL [00001199]

Toti senzorii

Date Temperatura solului [C]Precipitatii [mm]Voltaj baterie [mV]Leaf Wetness [Min]HC Air temperature [C]HC Relative humidity [%]Punctul de roua [C]
medieminmaxsumaultimatimpmedieminmaxmediemediemin
2020-01-21 22:00:00 0 -0.1 0.2 0 6572 0 -1.62 -2.74 -1.12 95.31 -2.1 -3
2020-01-22 00:00:00 0 -0.1 0.1 0 6542 0 -2.69 -3.66 -1.74 98.88 -2.7 -3.6
2020-01-22 02:00:00 0 -0.2 0 0 6522 0 -3.11 -3.5 -2.7 99.8 -3 -3.4
2020-01-22 04:00:00 -0.1 -0.3 0 0 6512 0 -3.87 -4.38 -3.27 99.99 -3.7 -4.2
2020-01-22 06:00:00 -0.2 -0.4 -0.1 0 6502 0 -3.95 -4.36 -3.78 100 -3.8 -4.2
2020-01-22 08:00:00 -0.3 -0.5 -0.2 0 6494 0 -3.99 -4.21 -3.68 100 -3.8 -4.1
2020-01-22 10:00:00 -0.3 -0.6 -0.3 0 6904 0 -1.67 -3.55 0.65 95.16 -2.2 -3.4
2020-01-22 12:00:00 -0.3 -0.6 -0.3 0 6894 0 2.67 0.73 5.22 70.41 -2.2 -2.6
2020-01-22 14:00:00 -0.2 -0.4 -0.2 0 6894 0 6.29 5.26 6.72 57.4 -1.5 -2.2
2020-01-22 16:00:00 0 -0.3 0.4 0 6894 0 6.06 5.65 6.56 60.15 -1.1 -1.8
2020-01-22 18:00:00 0.6 0.3 0.8 0 6660 0 4.34 2.7 6.25 65.26 -1.6 -2.1
2020-01-22 20:00:00 0.4 0.2 0.6 0 6590 0 2.14 1.52 3.02 73.9 -2 -2.3
2020-01-22 22:00:00 0.1 0.1 0.3 0 6582 0 -0.91 -2.37 0.94 90.22 -2.3 -2.8
2020-01-23 00:00:00 0 0 0.2 0 6532 0 -1.68 -2.56 -1 97.23 -2 -2.7
2020-01-23 02:00:00 0 -0.1 0.1 0 6532 0 1.15 -1.39 2.77 77.47 -2.5 -4.5
2020-01-23 04:00:00 0 -0.1 0.1 0 6512 0 1.5 -0.13 2.28 62.35 -4.9 -5.2
2020-01-23 06:00:00 0 -0.2 0 0 6502 0 -0.57 -2.06 1.17 72.11 -4.9 -5.3
2020-01-23 08:00:00 -0.1 -0.3 0 0 6502 0 -1.83 -3.93 -0.25 75.7 -5.5 -6.4
2020-01-23 10:00:00 -0.2 -0.3 -0.1 0 6894 0 -0.08 -3.62 3.33 69.88 -5 -6.1
2020-01-23 12:00:00 -0.1 -0.3 0 0 6894 0 6.17 3.52 7.6 44.33 -5.2 -6.5
2020-01-23 14:00:00 0.1 -0.2 1 0 6884 0 8.27 7.17 9.35 35.17 -6.3 -7
2020-01-23 16:00:00 2.2 1.1 2.9 0 6894 0 8.66 7.2 10.09 32.83 -6.8 -7.6
2020-01-23 18:00:00 2.4 1.8 2.9 0 6660 0 3.86 1.43 6.51 47.23 -6.5 -6.8
2020-01-23 20:00:00 1.2 0.8 1.8 0 6590 0 -0.27 -1.66 1.12 64.3 -6.2 -6.7
2020-01-23 22:00:00 0.5 0.4 0.8 0 6552 0 -1.58 -4.17 0.65 68.35 -6.6 -7.8